Hampton, NY (12837)

4:32 PM EDT on July 01, 2015 (GMT -0400)
Granville | | Change Station
CLOSE
Current Station
Personal Weather Station
Location: Granville, NY
Elevation: 417 ft
Nearby Weather Stations

Elev 417 ft 43.40 °N, 73.27 °W | Updated 5 minutes ago

Rain
Rain
73.7 °F
Feels Like 75 °F
N
0.0
Wind Variable Wind from SE
Gusts 7.0 mph

Today
High -- | Low -- °F
--% Chance of Precip.
Yesterday
High -- | Low -- °F
Precip. -- in
5:15 AM 8:37 PM
Full, 100% visible
Pressure 29.70 in
Visibility 10.0 miles
Clouds Few 3200 ft
Scattered Clouds 4300 ft
Mostly Cloudy 6500 ft
Heat Index 75 °F
Dew Point 66 °F
Humidity 76%
Rainfall 0.15 in
Snow Depth Not available.
UV 4 out of 12
Pollen 2.60 out of 12
Air Quality Not available.
Flu Activity Not available.
METAR KRUT 012015Z AUTO 21007KT 10SM FEW032 SCT043 BKN065 23/16 A2970 RMK AO1

More Conditions Fewer Conditions

Pressure 29.70 in
Visibility 10.0 miles
Clouds Few 3200 ft
Scattered Clouds 4300 ft
Mostly Cloudy 6500 ft
Heat Index 75 °F
Dew Point 66 °F
Humidity 76%
Rainfall 0.15 in
Snow Depth Not available.
UV 4 out of 12
Pollen 2.60 out of 12
Air Quality Not available.
Flu Activity Not available.
METAR KRUT 012015Z AUTO 21007KT 10SM FEW032 SCT043 BKN065 23/16 A2970 RMK AO1

More Conditions Fewer Conditions

10-Day Weather Forecast

×

Almanac

Astronomy

Jul. 01, 2015 Rise Set
Actual Time
Civil Twilight
Nautical Twilight
Astronomical Twilight
Moon
Length of Visible Light
Length of Day
Tomorrow will be .
, % of the Moon is Illuminated

Today's Extremes

State Highs State Lows

Community

WunderPhotos

Upload Photos

1,834,275 photos uploaded!

WunderBlogs® & News

Nearby

Air Quality

  Air Quality AQ Index Pollutant
Not available.

Snow Depth

Station Depth Elevation

Earthquake Activity

City Distance Mag. Time & Date
Minimum magnitude displayed is 2.5.

Coastal Water Temperatures

Place Temperature

Stations

Nearby Weather Stations

Station Location Temp. Windchill Dew Point Humidity Wind Precip. Elev Updated Type